KCGC

Details ICAO KCGC
Name Crystal River
Region United States
Timezone America/New_York (UTC-4.0)
Plans Departing 5
Arriving 6
Stats Elevation 9 ft / 3 m (AMSL)
Location 28.867930° -82.575146°
Runways 2
Magnetic Variation 5.700° W
Sunrise 2018-05-27 10:35:02 UTC / 2018-05-27 06:35:02 Local
Sunset 2018-05-28 00:22:49 UTC / 2018-05-27 20:22:49 Local
Advertisement - Login to hide

Runways

ID Width Length Bearing (true) Bearing (mag) Surface Threshold Offset Overrun Length
09 75 ft / 23 m 4,547 ft / 1,386 m 90.52° 96.22° Asphalt 0 ft / 0 m 0 ft / 0 m
18 100 ft / 30 m 3,041 ft / 927 m 180.00° 185.70° Grass 517 ft / 158 m 0 ft / 0 m
27 75 ft / 23 m 4,547 ft / 1,386 m 270.53° 276.23° Asphalt 0 ft / 0 m 0 ft / 0 m
36 100 ft / 30 m 3,041 ft / 927 m 0.00° 5.70° Grass 840 ft / 256 m 0 ft / 0 m

Map

Weather


0- 5 10 15 20 25 30 35+ Temperature / ° C

Clouds and Precipitation
Forecast for 2018-05-27 18:00 UTC. Updated 3 hours ago

Ground ~20,000 ft ~40,000 ft Winds

METAR

KCGC 272015Z AUTO 13003KT 7SM -RA SCT021 BKN028 OVC110 25/23 A2971 RMK AO2 LTG DSNT S P0001

TAF

Not found

Frequencies

Recorded 118.32 MHz AWOS 3
Approach 118.60 MHz JACKSONVILLE APP/DEP
Unicom 122.72 MHz CTAF/UNICOM
Warning: Do not use this data for real-world aviation or navigation. No guarantee of current accuracy is given.